Time;durP1;ratioP1;P1;durP2;ratioP2;P2;SDS_P1;SDS_P2;PMS_P1;PMS_P2;Temp;Humidity;BMP_temperature;BMP_pressure;BME280_temperature;BME280_humidity;BME280_pressure;Samples;Min_cycle;Max_cycle;Signal;HPM_P1;HPM_P2
2023/11/23 00:00:21;;;;;;;8.60;6.30;;;9.50;79.50;;;;;;4954770;29;20420;-73
2023/11/23 00:02:46;;;;;;;8.93;6.63;;;9.50;79.50;;;;;;4948409;29;20023;-74
2023/11/23 00:05:12;;;;;;;9.30;6.75;;;9.50;79.50;;;;;;4952542;29;20113;-73
2023/11/23 00:07:38;;;;;;;10.30;6.60;;;9.50;79.50;;;;;;4935422;29;20062;-74
2023/11/23 00:10:04;;;;;;;8.80;6.60;;;9.50;79.50;;;;;;4954425;29;20036;-73
2023/11/23 00:12:30;;;;;;;10.07;7.10;;;9.60;79.60;;;;;;4953791;29;20051;-73
2023/11/23 00:14:56;;;;;;;8.55;6.20;;;9.50;79.50;;;;;;4955456;28;20035;-74
2023/11/23 00:17:22;;;;;;;9.57;6.30;;;9.60;79.60;;;;;;4951391;28;20050;-73
2023/11/23 00:19:48;;;;;;;7.90;6.13;;;9.60;79.60;;;;;;4948260;29;20031;-74
2023/11/23 00:22:16;;;;;;;9.60;6.93;;;9.60;79.60;;;;;;4931960;29;20046;-75
2023/11/23 00:24:42;;;;;;;8.43;5.95;;;9.60;79.60;;;;;;4953142;28;20034;-76
2023/11/23 00:27:08;;;;;;;8.18;5.82;;;9.60;79.60;;;;;;4932706;29;20111;-73
2023/11/23 00:29:34;;;;;;;8.77;6.15;;;9.60;79.60;;;;;;4942836;29;20040;-73
2023/11/23 00:32:00;;;;;;;8.88;6.53;;;9.70;79.60;;;;;;4943630;29;20034;-73
2023/11/23 00:34:26;;;;;;;8.57;6.35;;;9.60;79.50;;;;;;4924484;29;20042;-74
2023/11/23 00:36:51;;;;;;;8.80;6.43;;;9.70;79.60;;;;;;4947326;29;20047;-74
2023/11/23 00:39:17;;;;;;;8.60;6.07;;;9.60;79.60;;;;;;4950778;29;20397;-74
2023/11/23 00:41:43;;;;;;;9.30;6.10;;;9.70;79.60;;;;;;4941396;29;20377;-74
2023/11/23 00:44:10;;;;;;;8.93;6.50;;;9.70;79.60;;;;;;4951022;29;20122;-73
2023/11/23 00:46:36;;;;;;;9.50;6.93;;;9.70;79.60;;;;;;4949815;29;20126;-74
2023/11/23 00:49:04;;;;;;;8.98;6.53;;;9.70;79.60;;;;;;4948633;29;20428;-74
2023/11/23 00:51:32;;;;;;;9.52;6.72;;;9.70;79.60;;;;;;4932273;29;20106;-74
2023/11/23 00:53:58;;;;;;;9.32;7.05;;;9.70;79.60;;;;;;4930718;29;20582;-74
2023/11/23 00:56:24;;;;;;;9.48;6.85;;;9.70;79.60;;;;;;4946584;28;20039;-74
2023/11/23 00:58:51;;;;;;;8.93;6.30;;;9.70;79.50;;;;;;4929882;29;20484;-74
2023/11/23 01:01:18;;;;;;;8.70;6.20;;;9.70;79.60;;;;;;4949228;29;20098;-75
2023/11/23 01:03:44;;;;;;;9.68;6.20;;;9.70;79.50;;;;;;4944618;28;20023;-74
2023/11/23 01:06:11;;;;;;;8.57;6.53;;;9.70;79.60;;;;;;4932559;29;20458;-74
2023/11/23 01:08:37;;;;;;;8.43;6.18;;;9.70;79.50;;;;;;4951121;29;20114;-74
2023/11/23 01:11:03;;;;;;;9.35;6.78;;;9.80;79.50;;;;;;4933279;29;20043;-75
2023/11/23 01:13:29;;;;;;;9.48;6.65;;;9.80;79.60;;;;;;4947504;29;20035;-75
2023/11/23 01:15:58;;;;;;;8.32;6.35;;;9.80;79.60;;;;;;4947001;29;20507;-74
2023/11/23 01:18:24;;;;;;;8.80;6.35;;;9.80;79.60;;;;;;4943186;29;20039;-74
2023/11/23 01:20:50;;;;;;;9.25;6.85;;;9.80;79.50;;;;;;4948352;29;20097;-75
2023/11/23 01:23:16;;;;;;;8.15;6.60;;;9.80;79.50;;;;;;4948182;29;20043;-74
2023/11/23 01:25:42;;;;;;;9.27;6.72;;;9.80;79.60;;;;;;4947871;29;20038;-74
2023/11/23 01:28:08;;;;;;;9.75;7.25;;;9.80;79.50;;;;;;4930107;29;20028;-74
2023/11/23 01:30:34;;;;;;;8.60;6.70;;;9.90;79.60;;;;;;4927874;29;20503;-74
2023/11/23 01:32:59;;;;;;;8.13;6.28;;;9.90;79.50;;;;;;4945910;29;20043;-74
2023/11/23 01:35:26;;;;;;;9.52;6.63;;;9.90;79.50;;;;;;4926757;29;20091;-74
2023/11/23 01:37:51;;;;;;;9.48;6.50;;;9.90;79.50;;;;;;4930436;29;20395;-74
2023/11/23 01:40:17;;;;;;;8.27;6.10;;;9.90;79.50;;;;;;4948957;29;20035;-74
2023/11/23 01:42:44;;;;;;;8.07;6.38;;;9.90;79.40;;;;;;4947296;29;20039;-75
2023/11/23 01:45:10;;;;;;;8.20;6.45;;;9.90;79.40;;;;;;4947469;29;20042;-74
2023/11/23 01:47:44;;;;;;;9.35;7.15;;;10.00;79.50;;;;;;4929929;29;20475;-74
2023/11/23 01:50:12;;;;;;;;;;;10.00;79.50;;;;;;4930099;29;20055;-74
2023/11/23 01:52:37;;;;;;;7.43;5.80;;;9.90;79.30;;;;;;4950912;29;20398;-73
2023/11/23 01:55:04;;;;;;;7.57;5.80;;;10.00;79.30;;;;;;4952503;28;20039;-76
2023/11/23 01:57:37;;;;;;;7.70;5.63;;;10.00;79.40;;;;;;4962755;29;20027;-74
2023/11/23 02:00:04;;;;;;;8.07;6.20;;;10.00;79.40;;;;;;4956721;29;20038;-74
2023/11/23 02:02:38;;;;;;;8.20;6.07;;;10.00;79.40;;;;;;4955420;29;20032;-74
2023/11/23 02:05:05;;;;;;;8.50;6.18;;;10.00;79.40;;;;;;4935983;29;20039;-75
2023/11/23 02:07:33;;;;;;;8.38;5.63;;;10.00;79.80;;;;;;4929307;29;20126;-74
2023/11/23 02:09:59;;;;;;;8.52;5.97;;;10.00;79.50;;;;;;4953659;28;20038;-74
2023/11/23 02:12:26;;;;;;;8.38;6.03;;;10.00;79.40;;;;;;4952573;29;20079;-75
2023/11/23 02:14:54;;;;;;;8.30;6.05;;;10.10;79.50;;;;;;4953308;28;20031;-75
2023/11/23 02:17:21;;;;;;;8.70;6.78;;;10.10;79.50;;;;;;4946187;29;20078;-75
2023/11/23 02:19:48;;;;;;;8.90;6.13;;;10.10;79.50;;;;;;4953601;28;20032;-75
2023/11/23 02:22:15;;;;;;;8.57;6.32;;;10.10;79.40;;;;;;4915374;29;20571;-74
2023/11/23 02:24:45;;;;;;;8.45;6.60;;;10.10;79.40;;;;;;4943269;29;20050;-76
2023/11/23 02:27:11;;;;;;;9.57;6.60;;;10.10;79.40;;;;;;4927175;29;20404;-74
2023/11/23 02:29:38;;;;;;;9.32;6.45;;;10.10;79.40;;;;;;4931284;29;20373;-74
2023/11/23 02:32:06;;;;;;;8.20;6.43;;;10.20;79.40;;;;;;4948037;29;20102;-74
2023/11/23 02:34:33;;;;;;;7.88;6.30;;;10.20;79.50;;;;;;4930737;29;20169;-74
2023/11/23 02:36:58;;;;;;;8.20;6.47;;;10.20;80.10;;;;;;4937173;29;20035;-74
2023/11/23 02:39:24;;;;;;;8.30;6.25;;;10.20;79.40;;;;;;4948178;29;20027;-74
2023/11/23 02:41:50;;;;;;;8.32;6.45;;;10.20;79.40;;;;;;4928823;29;20034;-75
2023/11/23 02:44:16;;;;;;;7.47;5.90;;;10.20;79.30;;;;;;4931334;29;20043;-73
2023/11/23 02:46:42;;;;;;;8.48;6.45;;;10.30;79.40;;;;;;4928678;29;20055;-75
2023/11/23 02:49:09;;;;;;;7.75;5.82;;;10.30;79.40;;;;;;4896830;29;20392;-74
2023/11/23 02:51:35;;;;;;;7.22;6.10;;;10.30;79.40;;;;;;4914983;29;20043;-74
2023/11/23 02:54:01;;;;;;;8.75;6.30;;;10.30;80.00;;;;;;4946417;29;20027;-73
2023/11/23 02:56:27;;;;;;;7.65;6.07;;;10.30;79.30;;;;;;4927355;29;20476;-74
2023/11/23 02:58:53;;;;;;;7.57;5.93;;;10.30;79.30;;;;;;4943920;29;20094;-74
2023/11/23 03:01:21;;;;;;;8.07;6.25;;;10.30;79.30;;;;;;4946918;29;20094;-74
2023/11/23 03:03:47;;;;;;;8.30;6.30;;;10.40;79.30;;;;;;4947434;29;20031;-74
2023/11/23 03:06:14;;;;;;;8.05;6.07;;;10.40;79.40;;;;;;4944691;29;20119;-74
2023/11/23 03:08:40;;;;;;;7.53;6.38;;;10.40;79.30;;;;;;4946187;29;20543;-74
2023/11/23 03:11:06;;;;;;;8.23;6.28;;;10.40;79.30;;;;;;4946169;29;20031;-75
2023/11/23 03:13:32;;;;;;;7.75;6.10;;;10.40;79.30;;;;;;4947106;29;20453;-74
2023/11/23 03:15:57;;;;;;;7.82;5.65;;;10.40;79.20;;;;;;4946382;29;21721;-75
2023/11/23 03:18:23;;;;;;;7.50;5.90;;;10.40;79.20;;;;;;4945248;29;20106;-75
2023/11/23 03:20:49;;;;;;;6.80;5.40;;;10.40;79.20;;;;;;4947641;28;20038;-73
2023/11/23 03:23:15;;;;;;;7.80;6.10;;;10.50;79.30;;;;;;4934309;29;20427;-74
2023/11/23 03:25:41;;;;;;;6.85;5.47;;;10.50;79.20;;;;;;4951188;29;20035;-74
2023/11/23 03:28:07;;;;;;;6.70;5.57;;;10.50;79.80;;;;;;4947709;29;20361;-74
2023/11/23 03:30:35;;;;;;;7.60;6.07;;;10.50;79.20;;;;;;4948686;29;20035;-73
2023/11/23 03:33:01;;;;;;;7.95;5.85;;;10.50;79.20;;;;;;4932229;29;20436;-75
2023/11/23 03:35:27;;;;;;;8.25;5.95;;;10.50;79.20;;;;;;4950372;29;20031;-74
2023/11/23 03:37:53;;;;;;;7.57;6.38;;;10.60;79.20;;;;;;4928188;29;20560;-75
2023/11/23 03:40:18;;;;;;;7.40;5.70;;;10.60;79.30;;;;;;4917950;29;20113;-74
2023/11/23 03:42:44;;;;;;;7.22;5.78;;;10.60;79.20;;;;;;4951297;29;20067;-74
2023/11/23 03:45:10;;;;;;;7.05;5.43;;;10.60;79.20;;;;;;4940810;29;20404;-74
2023/11/23 03:47:36;;;;;;;8.45;6.32;;;10.60;79.20;;;;;;4957064;29;20429;-76
2023/11/23 03:50:01;;;;;;;8.10;6.28;;;10.60;79.20;;;;;;4956607;29;20035;-75
2023/11/23 03:52:27;;;;;;;7.32;5.97;;;10.60;79.20;;;;;;4956383;29;20115;-75
2023/11/23 03:54:53;;;;;;;7.47;5.95;;;10.60;79.20;;;;;;4940402;29;20455;-75
2023/11/23 03:57:19;;;;;;;7.50;5.88;;;10.70;79.20;;;;;;4925006;29;20499;-75
2023/11/23 03:59:45;;;;;;;7.50;6.00;;;10.70;79.20;;;;;;4956229;29;20055;-75
2023/11/23 04:02:10;;;;;;;7.13;5.68;;;10.70;79.20;;;;;;4956391;29;20041;-74
2023/11/23 04:04:38;;;;;;;6.60;5.40;;;10.70;79.20;;;;;;4940942;29;20122;-75
2023/11/23 04:07:03;;;;;;;8.05;5.97;;;10.70;79.80;;;;;;4924802;29;20035;-76
2023/11/23 04:09:29;;;;;;;7.55;6.00;;;10.70;79.20;;;;;;4940745;29;20086;-75
2023/11/23 04:11:55;;;;;;;7.18;5.82;;;10.70;79.10;;;;;;4924439;29;20055;-74
2023/11/23 04:14:20;;;;;;;6.68;5.20;;;10.70;79.10;;;;;;4924466;29;20086;-74
2023/11/23 04:16:46;;;;;;;7.20;5.93;;;10.80;79.20;;;;;;4925259;29;20051;-74
2023/11/23 04:19:12;;;;;;;7.18;5.53;;;10.80;79.20;;;;;;4955793;29;20392;-74
2023/11/23 04:21:38;;;;;;;7.10;5.82;;;10.80;79.20;;;;;;4956161;29;20123;-74
2023/11/23 04:24:04;;;;;;;7.00;5.60;;;10.80;79.20;;;;;;4956790;29;20503;-75
2023/11/23 04:26:31;;;;;;;7.75;5.60;;;10.80;79.80;;;;;;4955720;29;20404;-75
2023/11/23 04:28:57;;;;;;;6.78;5.75;;;10.80;79.10;;;;;;4939893;29;20023;-74
2023/11/23 04:31:26;;;;;;;7.50;5.70;;;10.90;79.20;;;;;;4939298;29;20031;-76
2023/11/23 04:33:51;;;;;;;6.93;5.55;;;10.90;79.20;;;;;;4955565;29;20054;-75
2023/11/23 04:36:17;;;;;;;6.65;5.43;;;10.90;79.10;;;;;;4956197;29;20023;-74
2023/11/23 04:38:43;;;;;;;7.15;5.40;;;10.90;79.10;;;;;;4957399;28;20444;-76
2023/11/23 04:41:09;;;;;;;7.47;5.20;;;10.90;79.10;;;;;;4955977;29;20406;-75
2023/11/23 04:43:35;;;;;;;7.60;5.60;;;10.90;79.10;;;;;;4924070;29;20070;-76
2023/11/23 04:46:01;;;;;;;6.80;5.57;;;10.90;79.10;;;;;;4939723;29;20035;-75
2023/11/23 04:48:26;;;;;;;6.90;5.30;;;11.00;79.10;;;;;;4923936;29;20027;-74
2023/11/23 04:50:52;;;;;;;6.32;5.20;;;11.00;79.10;;;;;;4955624;29;20132;-75
2023/11/23 04:53:18;;;;;;;6.13;5.30;;;11.00;79.10;;;;;;4923916;29;20043;-74
2023/11/23 04:55:44;;;;;;;6.55;5.57;;;11.00;79.10;;;;;;4955212;29;20027;-75
2023/11/23 04:58:09;;;;;;;7.00;5.53;;;11.00;79.10;;;;;;4939256;29;20042;-75
2023/11/23 05:00:35;;;;;;;6.63;5.28;;;11.00;79.10;;;;;;4939377;29;20568;-75
2023/11/23 05:03:01;;;;;;;6.60;5.40;;;11.00;79.10;;;;;;4955135;29;20118;-75
2023/11/23 05:05:27;;;;;;;7.15;5.05;;;11.10;79.10;;;;;;4924121;29;20031;-75
2023/11/23 05:07:53;;;;;;;6.40;5.20;;;11.00;79.10;;;;;;4955399;29;20086;-74
2023/11/23 05:10:20;;;;;;;6.38;5.25;;;11.10;79.20;;;;;;4956491;29;20031;-74
2023/11/23 05:12:45;;;;;;;6.45;5.07;;;11.10;79.20;;;;;;4955098;29;20577;-75
2023/11/23 05:15:11;;;;;;;5.97;4.90;;;11.10;79.20;;;;;;4955341;29;20071;-75
2023/11/23 05:17:37;;;;;;;6.15;4.95;;;11.10;79.20;;;;;;4939205;29;20031;-75
2023/11/23 05:20:04;;;;;;;6.28;4.75;;;11.10;79.20;;;;;;4956081;29;20027;-75
2023/11/23 05:22:33;;;;;;;5.80;4.43;;;11.10;79.20;;;;;;4955373;29;20061;-74
2023/11/23 05:24:58;;;;;;;6.20;4.72;;;11.20;79.30;;;;;;4955026;29;20116;-75
2023/11/23 05:27:24;;;;;;;5.53;4.38;;;11.20;79.20;;;;;;4955063;29;20031;-75
2023/11/23 05:29:50;;;;;;;6.72;4.75;;;11.20;79.30;;;;;;4938798;29;20035;-74
2023/11/23 05:32:16;;;;;;;6.72;4.63;;;11.20;79.30;;;;;;4938866;29;20427;-74
2023/11/23 05:34:42;;;;;;;6.38;4.45;;;11.20;79.30;;;;;;4938568;29;20028;-75
2023/11/23 05:37:08;;;;;;;5.93;4.63;;;11.20;79.30;;;;;;4955012;29;20038;-75
2023/11/23 05:39:33;;;;;;;6.93;5.25;;;11.20;79.30;;;;;;4938622;29;20476;-75
2023/11/23 05:41:59;;;;;;;6.50;5.35;;;11.20;79.30;;;;;;4956146;28;20419;-76
2023/11/23 05:44:25;;;;;;;5.43;4.47;;;11.20;79.30;;;;;;4956479;28;20034;-76
2023/11/23 05:46:51;;;;;;;5.55;4.55;;;11.30;79.40;;;;;;4954966;29;20039;-75
2023/11/23 05:49:21;;;;;;;6.65;4.75;;;11.30;79.40;;;;;;4954556;29;20091;-75
2023/11/23 05:51:48;;;;;;;6.15;4.28;;;11.30;79.30;;;;;;4923580;29;20031;-76
2023/11/23 05:54:14;;;;;;;6.13;4.55;;;11.30;80.00;;;;;;4922915;29;20424;-75
2023/11/23 05:56:40;;;;;;;6.30;4.70;;;11.30;79.40;;;;;;4938759;29;20069;-74
2023/11/23 05:59:07;;;;;;;7.45;4.95;;;11.30;79.30;;;;;;4938493;29;20031;-74
2023/11/23 06:01:33;;;;;;;6.03;4.68;;;11.30;79.30;;;;;;4955523;28;20038;-74
2023/11/23 06:03:58;;;;;;;5.13;4.35;;;11.30;79.30;;;;;;4922622;29;20408;-76
2023/11/23 06:06:24;;;;;;;6.13;4.57;;;11.30;79.30;;;;;;4938935;29;20369;-77
2023/11/23 06:08:50;;;;;;;5.80;4.68;;;11.30;79.30;;;;;;4954888;29;20499;-75
2023/11/23 06:11:17;;;;;;;5.72;4.55;;;11.40;79.30;;;;;;4922075;29;20039;-74
2023/11/23 06:13:44;;;;;;;5.82;4.65;;;11.40;79.40;;;;;;4938493;29;20035;-75
2023/11/23 06:16:10;;;;;;;5.70;4.53;;;11.40;79.30;;;;;;4954145;29;20464;-75
2023/11/23 06:18:36;;;;;;;5.97;4.50;;;11.40;79.30;;;;;;4955778;28;20019;-75
2023/11/23 06:21:02;;;;;;;6.30;4.70;;;11.40;79.30;;;;;;4954258;29;20475;-75
2023/11/23 06:23:30;;;;;;;6.22;4.78;;;11.40;79.90;;;;;;4922531;29;20588;-74
2023/11/23 06:25:57;;;;;;;5.95;4.40;;;11.40;79.30;;;;;;4938370;29;20047;-74
2023/11/23 06:28:23;;;;;;;5.93;4.60;;;11.40;79.30;;;;;;4954380;29;20028;-74
2023/11/23 06:30:50;;;;;;;6.18;4.65;;;11.40;79.30;;;;;;4954932;28;20106;-75
2023/11/23 06:33:16;;;;;;;6.10;4.50;;;11.50;79.40;;;;;;4938104;29;20043;-74
2023/11/23 06:35:43;;;;;;;7.65;5.10;;;11.50;79.40;;;;;;4954055;29;20472;-75
2023/11/23 06:38:08;;;;;;;5.55;4.55;;;11.50;79.30;;;;;;4954312;29;20118;-74
2023/11/23 06:40:35;;;;;;;6.00;4.75;;;11.50;79.40;;;;;;4953417;29;20459;-74
2023/11/23 06:43:02;;;;;;;4.97;4.22;;;11.50;79.30;;;;;;4955216;28;20039;-75
2023/11/23 06:45:28;;;;;;;5.53;4.45;;;11.50;79.30;;;;;;4955147;28;20452;-74
2023/11/23 06:47:54;;;;;;;6.03;4.40;;;11.50;79.30;;;;;;4955028;29;20035;-75
2023/11/23 06:50:20;;;;;;;5.57;4.43;;;11.50;79.30;;;;;;4953827;29;20053;-78
2023/11/23 06:52:47;;;;;;;6.30;4.57;;;11.50;79.30;;;;;;4954371;29;20067;-75
2023/11/23 06:55:14;;;;;;;6.35;4.80;;;11.50;79.30;;;;;;4956323;28;20083;-76
2023/11/23 06:57:46;;;;;;;6.47;4.68;;;11.60;79.40;;;;;;4958917;28;20039;-76
2023/11/23 07:00:22;;;;;;;5.72;4.57;;;11.60;79.40;;;;;;4926296;29;20035;-76
2023/11/23 07:02:56;;;;;;;6.00;4.68;;;11.60;79.40;;;;;;4958092;29;20031;-75
2023/11/23 07:05:24;;;;;;;5.90;4.68;;;11.60;79.40;;;;;;4925782;29;20057;-76
2023/11/23 07:07:51;;;;;;;5.82;4.43;;;11.60;79.30;;;;;;4957588;29;20031;-75
2023/11/23 07:10:20;;;;;;;6.10;4.65;;;11.60;79.30;;;;;;4957590;29;20043;-80
2023/11/23 07:12:46;;;;;;;6.13;4.10;;;11.60;79.30;;;;;;4957183;29;20066;-75
2023/11/23 07:15:12;;;;;;;5.65;4.28;;;11.60;79.30;;;;;;4957197;29;20051;-76
2023/11/23 07:17:45;;;;;;;5.80;4.63;;;11.60;79.30;;;;;;4941377;29;20042;-75
2023/11/23 07:20:14;;;;;;;6.82;4.93;;;11.70;80.00;;;;;;4958316;28;20034;-75
2023/11/23 07:22:40;;;;;;;5.88;4.45;;;11.70;79.30;;;;;;4957935;29;20035;-74
2023/11/23 07:25:10;;;;;;;5.90;4.93;;;11.70;79.30;;;;;;4957455;29;20034;-74
2023/11/23 07:27:39;;;;;;;6.43;4.72;;;11.70;80.00;;;;;;4941407;29;20031;-74
2023/11/23 07:30:08;;;;;;;5.65;4.28;;;11.70;79.30;;;;;;4958152;29;20033;-74
2023/11/23 07:32:34;;;;;;;5.53;4.18;;;11.70;79.30;;;;;;4957791;29;20384;-75
2023/11/23 07:35:01;;;;;;;5.65;4.47;;;11.70;79.30;;;;;;4925600;29;20040;-74
2023/11/23 07:37:28;;;;;;;7.32;5.40;;;11.70;79.30;;;;;;4956825;29;20067;-75
2023/11/23 07:39:54;;;;;;;5.07;4.18;;;11.70;79.30;;;;;;4925401;29;20031;-75
2023/11/23 07:42:20;;;;;;;6.35;4.80;;;11.70;79.30;;;;;;4956990;29;20126;-75
2023/11/23 07:44:46;;;;;;;5.68;4.35;;;11.70;79.30;;;;;;4956720;29;20118;-75
2023/11/23 07:47:16;;;;;;;6.68;4.85;;;11.70;79.20;;;;;;4925038;29;20043;-74
2023/11/23 07:49:45;;;;;;;5.70;4.28;;;11.80;79.30;;;;;;4957758;28;20067;-75
2023/11/23 07:52:12;;;;;;;6.25;4.65;;;11.80;79.30;;;;;;4941028;29;20090;-74
2023/11/23 07:54:38;;;;;;;5.72;4.30;;;11.80;79.30;;;;;;4957038;29;20479;-75
2023/11/23 07:57:04;;;;;;;5.35;4.07;;;11.80;79.30;;;;;;4940977;29;20035;-75
2023/11/23 07:59:31;;;;;;;5.60;4.35;;;11.80;79.30;;;;;;4956221;29;20055;-75
2023/11/23 08:01:57;;;;;;;6.63;4.75;;;11.80;79.20;;;;;;4958614;28;20043;-74
2023/11/23 08:04:24;;;;;;;5.93;4.25;;;11.80;79.30;;;;;;4957623;28;20489;-75
2023/11/23 08:06:49;;;;;;;6.38;4.05;;;11.80;79.20;;;;;;4955230;28;20102;-75
2023/11/23 08:09:19;;;;;;;5.57;4.22;;;11.80;79.30;;;;;;4940353;29;20492;-74
2023/11/23 08:11:45;;;;;;;5.78;4.32;;;11.90;79.30;;;;;;4957299;29;20062;-73
2023/11/23 08:14:12;;;;;;;4.90;3.90;;;11.80;79.20;;;;;;4956621;29;20075;-75
2023/11/23 08:16:38;;;;;;;6.10;4.50;;;11.90;79.30;;;;;;4957311;28;20054;-75
2023/11/23 08:19:04;;;;;;;5.50;4.10;;;11.90;79.30;;;;;;4940785;29;20031;-75
2023/11/23 08:21:30;;;;;;;7.15;5.00;;;11.90;79.20;;;;;;4941122;29;20043;-75
2023/11/23 08:23:56;;;;;;;5.22;4.10;;;11.90;79.20;;;;;;4956558;29;20515;-74
2023/11/23 08:26:22;;;;;;;5.50;4.00;;;11.90;79.20;;;;;;4956088;29;20484;-74
2023/11/23 08:28:49;;;;;;;5.30;4.00;;;11.90;79.30;;;;;;4955994;29;20091;-75
2023/11/23 08:31:14;;;;;;;5.90;4.07;;;12.00;79.30;;;;;;4940212;29;20086;-75
2023/11/23 08:33:40;;;;;;;5.55;3.95;;;11.90;79.20;;;;;;4940097;29;20127;-75
2023/11/23 08:36:06;;;;;;;5.50;4.40;;;11.90;79.20;;;;;;4955961;29;20027;-74
2023/11/23 08:38:33;;;;;;;5.38;4.10;;;12.00;79.30;;;;;;4956237;29;20046;-74
2023/11/23 08:41:00;;;;;;;5.40;3.97;;;12.00;79.30;;;;;;4956091;29;20037;-75
2023/11/23 08:43:26;;;;;;;5.45;4.18;;;12.00;79.30;;;;;;4956176;29;20114;-75
2023/11/23 08:45:52;;;;;;;5.05;3.88;;;12.00;79.30;;;;;;4956021;29;20062;-73
2023/11/23 08:48:22;;;;;;;5.30;4.13;;;12.00;79.90;;;;;;4957247;29;20461;-74
2023/11/23 08:50:49;;;;;;;5.28;4.07;;;12.00;79.30;;;;;;4956309;29;20099;-73
2023/11/23 08:53:15;;;;;;;5.60;3.88;;;12.00;79.20;;;;;;4955619;29;20067;-74
2023/11/23 08:55:44;;;;;;;5.85;4.07;;;12.00;79.20;;;;;;4955624;29;20054;-75
2023/11/23 08:58:10;;;;;;;4.78;3.78;;;12.00;79.20;;;;;;4956637;28;20041;-74
2023/11/23 09:00:35;;;;;;;5.68;4.57;;;12.10;79.30;;;;;;4955782;29;20027;-74
2023/11/23 09:03:04;;;;;;;4.93;3.65;;;12.10;79.20;;;;;;4939979;29;20058;-74
2023/11/23 09:05:30;;;;;;;4.80;3.75;;;12.10;79.20;;;;;;4955259;29;20031;-74
2023/11/23 09:07:56;;;;;;;5.78;4.20;;;12.10;79.20;;;;;;4923954;29;20545;-74
2023/11/23 09:10:23;;;;;;;5.38;4.10;;;12.10;79.20;;;;;;4955692;29;20039;-74
2023/11/23 09:12:50;;;;;;;5.82;3.92;;;12.10;79.20;;;;;;4939335;29;20129;-73
2023/11/23 09:15:16;;;;;;;6.00;4.15;;;12.10;79.20;;;;;;4940076;29;20031;-74
2023/11/23 09:17:42;;;;;;;5.22;3.72;;;12.10;79.20;;;;;;4955948;28;20054;-73
2023/11/23 09:20:09;;;;;;;6.45;4.28;;;12.10;79.20;;;;;;4956331;28;20042;-74
2023/11/23 09:22:35;;;;;;;4.78;3.63;;;12.10;79.50;;;;;;4939186;29;20361;-74
2023/11/23 09:25:03;;;;;;;5.30;3.90;;;12.20;79.20;;;;;;4954965;29;20114;-74
2023/11/23 09:27:29;;;;;;;5.35;4.10;;;12.20;79.20;;;;;;4956031;28;20439;-77
2023/11/23 09:29:56;;;;;;;4.95;3.85;;;12.20;79.20;;;;;;4939157;29;20102;-74
2023/11/23 09:32:22;;;;;;;5.43;3.90;;;12.20;79.20;;;;;;4938939;29;20373;-73
2023/11/23 09:34:48;;;;;;;5.15;4.10;;;12.20;79.10;;;;;;4955011;29;20032;-74
2023/11/23 09:37:14;;;;;;;5.65;4.13;;;12.20;79.10;;;;;;4939400;29;20360;-73
2023/11/23 09:39:39;;;;;;;5.25;3.92;;;12.20;79.10;;;;;;4939245;29;20051;-74
2023/11/23 09:42:07;;;;;;;4.55;3.80;;;12.30;79.20;;;;;;4956295;29;20140;-73
2023/11/23 09:44:35;;;;;;;4.65;3.67;;;12.30;79.10;;;;;;4955042;29;20453;-74
2023/11/23 09:47:03;;;;;;;5.63;3.72;;;12.30;79.10;;;;;;4955703;29;20063;-74
2023/11/23 09:49:29;;;;;;;4.93;3.70;;;12.30;79.10;;;;;;4956093;28;20034;-74
2023/11/23 09:51:55;;;;;;;4.85;3.75;;;12.30;79.10;;;;;;4954959;29;20039;-75
2023/11/23 09:54:23;;;;;;;5.00;3.63;;;12.30;79.10;;;;;;4954520;29;20035;-74
2023/11/23 09:56:49;;;;;;;5.30;3.83;;;12.30;79.10;;;;;;4938545;29;20038;-75
2023/11/23 09:59:16;;;;;;;6.40;3.97;;;12.40;79.10;;;;;;4938450;29;20031;-75
2023/11/23 10:01:47;;;;;;;5.75;4.32;;;12.40;79.10;;;;;;4955213;29;20472;-74
2023/11/23 10:04:14;;;;;;;4.30;3.38;;;12.40;79.10;;;;;;4954173;29;20396;-75
2023/11/23 10:06:40;;;;;;;4.63;3.60;;;12.40;79.00;;;;;;4954425;29;20039;-75
2023/11/23 10:09:09;;;;;;;4.88;3.72;;;12.40;79.00;;;;;;4938683;29;20035;-75
2023/11/23 10:11:36;;;;;;;5.32;3.63;;;12.50;79.10;;;;;;4955029;28;20138;-75
2023/11/23 10:14:04;;;;;;;4.78;3.75;;;12.50;79.00;;;;;;4956077;28;20039;-75
2023/11/23 10:16:32;;;;;;;6.47;3.90;;;12.50;79.00;;;;;;4955763;28;20043;-75
2023/11/23 10:18:58;;;;;;;5.07;3.38;;;12.50;79.00;;;;;;4954024;29;20027;-75
2023/11/23 10:21:24;;;;;;;4.70;3.53;;;12.50;79.00;;;;;;4954546;29;20042;-75
2023/11/23 10:23:50;;;;;;;5.82;3.80;;;12.50;79.00;;;;;;4938616;29;20038;-75
2023/11/23 10:26:16;;;;;;;5.25;3.78;;;12.50;78.90;;;;;;4954580;29;20031;-75
2023/11/23 10:28:42;;;;;;;4.88;3.67;;;12.60;79.00;;;;;;4954122;29;20482;-76
2023/11/23 10:31:09;;;;;;;4.70;3.90;;;12.60;79.00;;;;;;4938311;29;20035;-75
2023/11/23 10:33:36;;;;;;;4.32;3.63;;;12.60;79.00;;;;;;4954097;29;20035;-76
2023/11/23 10:36:08;;;;;;;5.35;3.60;;;12.60;78.90;;;;;;4954344;29;20035;-76
2023/11/23 10:38:38;;;;;;;4.43;3.38;;;12.60;78.90;;;;;;4955733;28;20375;-78
2023/11/23 10:41:06;;;;;;;5.13;3.40;;;12.60;78.90;;;;;;4955160;28;20028;-75
2023/11/23 10:43:36;;;;;;;4.30;3.30;;;12.70;78.90;;;;;;4938464;29;20170;-75
2023/11/23 10:46:10;;;;;;;3.88;3.17;;;12.70;78.90;;;;;;4923055;29;20078;-76
2023/11/23 10:48:37;;;;;;;4.32;3.17;;;12.70;78.90;;;;;;4938287;29;20042;-76
2023/11/23 10:51:05;;;;;;;4.32;3.40;;;12.70;78.90;;;;;;4938258;29;20035;-75
2023/11/23 10:53:31;;;;;;;5.10;3.15;;;12.70;78.90;;;;;;4938150;29;20130;-73
2023/11/23 10:56:13;;;;;;;4.63;3.33;;;12.70;78.90;;;;;;4938042;29;20424;-74
2023/11/23 10:58:41;;;;;;;4.68;3.45;;;12.80;79.00;;;;;;4938292;29;20038;-74
2023/11/23 11:01:10;;;;;;;5.40;3.60;;;12.80;78.90;;;;;;4955004;28;20042;-76
2023/11/23 11:03:38;;;;;;;4.03;2.97;;;12.80;78.90;;;;;;4955911;28;20062;-75
2023/11/23 11:06:12;;;;;;;4.22;3.42;;;12.80;79.60;;;;;;4954978;28;20441;-74
2023/11/23 11:08:48;;;;;;;3.55;2.88;;;12.90;78.90;;;;;;4954102;29;20062;-74
2023/11/23 11:11:21;;;;;;;4.40;2.72;;;12.90;78.90;;;;;;4954160;29;20039;-75
2023/11/23 11:13:47;;;;;;;3.95;3.00;;;12.90;78.90;;;;;;4953761;29;20039;-74
2023/11/23 11:16:15;;;;;;;3.85;3.08;;;12.90;78.90;;;;;;4953941;29;20031;-74
2023/11/23 11:18:52;;;;;;;4.00;2.90;;;12.90;78.90;;;;;;4938373;29;20042;-74
2023/11/23 11:21:20;;;;;;;3.85;2.67;;;12.90;78.90;;;;;;4938216;29;20452;-74
2023/11/23 11:23:50;;;;;;;3.85;2.88;;;12.90;78.80;;;;;;4937815;29;20047;-74
2023/11/23 11:26:19;;;;;;;3.15;2.55;;;12.90;78.80;;;;;;4937808;29;20468;-74
2023/11/23 11:28:59;;;;;;;3.50;2.65;;;13.00;78.90;;;;;;4938066;29;20428;-74
2023/11/23 11:31:37;;;;;;;3.55;2.92;;;13.00;78.90;;;;;;4955777;28;20552;-74
2023/11/23 11:34:19;;;;;;;3.83;2.75;;;13.00;78.90;;;;;;4937813;29;20031;-75
2023/11/23 11:36:59;;;;;;;3.70;2.72;;;13.00;78.90;;;;;;4938611;29;20035;-75
2023/11/23 11:39:31;;;;;;;4.28;2.83;;;13.00;78.80;;;;;;4954570;29;20058;-74
2023/11/23 11:41:59;;;;;;;3.10;2.70;;;13.00;78.80;;;;;;4956693;28;20034;-74
2023/11/23 11:44:29;;;;;;;3.15;2.78;;;13.10;78.80;;;;;;4957263;29;20027;-75
2023/11/23 11:46:57;;;;;;;3.88;2.63;;;13.10;78.90;;;;;;4957245;29;20042;-74
2023/11/23 11:49:24;;;;;;;3.75;2.67;;;13.10;78.90;;;;;;4956689;29;20038;-74
2023/11/23 11:51:50;;;;;;;3.35;2.45;;;13.10;78.80;;;;;;4956507;29;20049;-74
2023/11/23 11:54:19;;;;;;;4.00;2.88;;;13.10;78.80;;;;;;4940858;29;20118;-74
2023/11/23 11:56:47;;;;;;;5.50;3.13;;;13.10;78.80;;;;;;4941281;29;20035;-76
2023/11/23 11:59:14;;;;;;;3.47;2.50;;;13.10;78.80;;;;;;4957773;28;20428;-75
2023/11/23 12:01:43;;;;;;;3.42;2.50;;;13.20;78.80;;;;;;4940511;29;20514;-75
2023/11/23 12:04:12;;;;;;;3.30;2.50;;;13.20;78.90;;;;;;4956937;29;20051;-75
2023/11/23 12:06:38;;;;;;;2.67;2.28;;;13.20;78.80;;;;;;4956908;29;20031;-74
2023/11/23 12:09:14;;;;;;;4.95;3.17;;;13.20;78.80;;;;;;4940966;29;20042;-75
2023/11/23 12:11:43;;;;;;;3.88;2.20;;;13.20;78.80;;;;;;4956551;29;20549;-74
2023/11/23 12:14:10;;;;;;;3.65;2.75;;;13.20;78.70;;;;;;4957952;28;20158;-74
2023/11/23 12:16:36;;;;;;;3.15;2.30;;;13.30;78.80;;;;;;4956649;29;20035;-74
2023/11/23 12:19:13;;;;;;;2.80;2.33;;;13.30;78.80;;;;;;4956421;29;20049;-74
2023/11/23 12:21:38;;;;;;;2.83;2.40;;;13.30;78.80;;;;;;4956629;29;20039;-74
2023/11/23 12:24:05;;;;;;;3.38;2.47;;;13.30;78.80;;;;;;4940340;29;20105;-74
2023/11/23 12:26:32;;;;;;;2.67;2.10;;;13.30;78.80;;;;;;4924222;29;20035;-74
2023/11/23 12:28:58;;;;;;;4.20;2.60;;;13.40;78.80;;;;;;4924383;29;20369;-74
2023/11/23 12:31:24;;;;;;;2.60;2.08;;;13.30;78.80;;;;;;4955943;29;20064;-74
2023/11/23 12:33:50;;;;;;;3.88;2.75;;;13.30;78.70;;;;;;4940423;29;20049;-74
2023/11/23 12:36:16;;;;;;;2.28;2.08;;;13.40;78.80;;;;;;4955929;29;20392;-75
2023/11/23 12:38:42;;;;;;;2.92;2.20;;;13.40;78.70;;;;;;4940234;29;20098;-74
2023/11/23 12:41:08;;;;;;;3.10;2.40;;;13.40;78.70;;;;;;4939918;29;20035;-74
2023/11/23 12:43:34;;;;;;;3.00;2.40;;;13.40;78.70;;;;;;4956034;29;20054;-74
2023/11/23 12:46:00;;;;;;;3.17;2.42;;;13.50;78.80;;;;;;4956045;29;20039;-74